Time;durP1;ratioP1;P1;durP2;ratioP2;P2;SDS_P1;SDS_P2;PMS_P1;PMS_P2;Temp;Humidity;BMP_temperature;BMP_pressure;BME280_temperature;BME280_humidity;BME280_pressure;Samples;Min_cycle;Max_cycle;Signal;HPM_P1;HPM_P2
2022/12/01 00:00:39;;;;;;;48.10;27.13;;;;;;;4.38;100.00;102593.97;5022223;28;20481;-60
2022/12/01 00:03:05;;;;;;;46.30;26.92;;;;;;;4.39;100.00;102595.66;5018912;28;20417;-57
2022/12/01 00:05:30;;;;;;;47.22;26.83;;;;;;;4.40;100.00;102594.75;5020003;28;20034;-59
2022/12/01 00:07:57;;;;;;;49.78;27.83;;;;;;;4.40;100.00;102586.84;5019368;28;20393;-57
2022/12/01 00:10:26;;;;;;;50.88;27.65;;;;;;;4.39;100.00;102595.66;5021701;28;21084;-58
2022/12/01 00:12:52;;;;;;;47.65;26.98;;;;;;;4.42;100.00;102589.41;5021534;28;20035;-59
2022/12/01 00:15:18;;;;;;;47.47;26.60;;;;;;;4.44;100.00;102591.03;5022080;28;20068;-59
2022/12/01 00:17:44;;;;;;;47.15;26.98;;;;;;;4.48;100.00;102588.28;5012934;28;21861;-57
2022/12/01 00:20:11;;;;;;;49.65;26.85;;;;;;;4.47;100.00;102592.66;5020878;28;20036;-59
2022/12/01 00:22:36;;;;;;;50.20;27.02;;;;;;;4.46;100.00;102579.59;5021041;28;20485;-57
2022/12/01 00:25:02;;;;;;;46.10;26.92;;;;;;;4.48;100.00;102580.41;5021530;28;20103;-58
2022/12/01 00:27:28;;;;;;;49.10;27.60;;;;;;;4.48;100.00;102583.00;5020608;28;20707;-56
2022/12/01 00:29:53;;;;;;;48.03;27.00;;;;;;;4.48;100.00;102583.00;5025956;28;20117;-58
2022/12/01 00:32:18;;;;;;;50.63;27.67;;;;;;;4.43;100.00;102581.47;5022804;28;20038;-58
2022/12/01 00:34:44;;;;;;;49.83;27.63;;;;;;;4.46;100.00;102585.72;5017550;28;20112;-57
2022/12/01 00:37:09;;;;;;;49.45;28.38;;;;;;;4.43;100.00;102586.72;5013391;28;20057;-58
2022/12/01 00:39:34;;;;;;;50.92;28.55;;;;;;;4.40;100.00;102586.84;5019794;28;20456;-58
2022/12/01 00:41:59;;;;;;;52.95;27.90;;;;;;;4.42;100.00;102585.03;5018703;28;20033;-59
2022/12/01 00:44:25;;;;;;;47.15;26.85;;;;;;;4.41;100.00;102582.47;5019883;28;20037;-57
2022/12/01 00:46:50;;;;;;;54.65;29.48;;;;;;;4.36;100.00;102580.09;5021626;28;20048;-58
2022/12/01 00:49:15;;;;;;;52.67;29.63;;;;;;;4.36;100.00;102585.34;5023713;28;20037;-59
2022/12/01 00:51:41;;;;;;;53.75;28.95;;;;;;;4.40;100.00;102586.03;5021655;28;20401;-59
2022/12/01 00:54:06;;;;;;;53.00;29.30;;;;;;;4.43;100.00;102586.72;5022272;28;20096;-59
2022/12/01 00:56:31;;;;;;;51.65;27.75;;;;;;;4.47;100.00;102581.28;5012925;28;20038;-56
2022/12/01 00:58:57;;;;;;;55.10;28.52;;;;;;;4.52;100.00;102584.53;5021830;28;20651;-57
2022/12/01 01:01:22;;;;;;;57.08;29.38;;;;;;;4.52;100.00;102585.41;5022874;28;20096;-56
2022/12/01 01:03:47;;;;;;;62.25;29.63;;;;;;;4.49;100.00;102579.47;5011977;28;20033;-57
2022/12/01 01:06:13;;;;;;;59.95;29.98;;;;;;;4.48;100.00;102590.91;5019432;28;20044;-57
2022/12/01 01:08:39;;;;;;;62.83;31.35;;;;;;;4.47;100.00;102587.41;5018638;28;20034;-58
2022/12/01 01:11:05;;;;;;;61.17;29.80;;;;;;;4.47;100.00;102591.81;5023445;28;20052;-57
2022/12/01 01:13:31;;;;;;;64.57;30.90;;;;;;;4.49;100.00;102595.22;5018414;28;20467;-59
2022/12/01 01:15:58;;;;;;;62.90;30.67;;;;;;;4.48;100.00;102591.72;5019427;28;20115;-58
2022/12/01 01:18:24;;;;;;;65.15;30.25;;;;;;;4.53;100.00;102597.59;5018814;28;20473;-57
2022/12/01 01:21:02;;;;;;;62.63;29.77;;;;;;;4.59;100.00;102601.69;5016075;28;20080;-57
2022/12/01 01:23:28;;;;;;;61.08;29.60;;;;;;;4.56;100.00;102597.47;5020383;28;20041;-57
2022/12/01 01:26:00;;;;;;;63.03;29.92;;;;;;;4.59;100.00;102596.44;5021910;28;20025;-56
2022/12/01 01:28:25;;;;;;;62.47;30.30;;;;;;;4.62;100.00;102605.94;5015314;28;20156;-58
2022/12/01 01:30:50;;;;;;;62.53;30.00;;;;;;;4.60;100.00;102613.06;5020816;28;20116;-57
2022/12/01 01:33:16;;;;;;;62.10;28.38;;;;;;;4.62;100.00;102613.81;5022424;28;20044;-57
2022/12/01 01:35:41;;;;;;;64.68;30.20;;;;;;;4.58;100.00;102610.50;5020990;28;20059;-57
2022/12/01 01:38:06;;;;;;;60.22;29.90;;;;;;;4.60;100.00;102619.19;5012014;28;20044;-59
2022/12/01 01:40:31;;;;;;;60.40;29.33;;;;;;;4.56;100.00;102618.47;5008400;28;20063;-57
2022/12/01 01:42:57;;;;;;;58.63;28.30;;;;;;;4.60;100.00;102616.53;5005953;28;20037;-57
2022/12/01 01:45:27;;;;;;;61.03;28.83;;;;;;;4.55;100.00;102618.56;5014900;28;20037;-57
2022/12/01 01:47:54;;;;;;;56.05;27.33;;;;;;;4.58;100.00;102610.50;5015847;28;20135;-56
2022/12/01 01:50:23;;;;;;;53.35;27.00;;;;;;;4.57;100.00;102619.31;5014389;28;20116;-57
2022/12/01 01:52:55;;;;;;;55.55;26.48;;;;;;;4.61;100.00;102622.63;5022181;28;20092;-59
2022/12/01 01:55:20;;;;;;;52.28;26.27;;;;;;;4.63;100.00;102613.75;5021485;28;20107;-58
2022/12/01 01:57:45;;;;;;;57.92;27.63;;;;;;;4.61;100.00;102617.38;5019324;28;20026;-59
2022/12/01 02:00:14;;;;;;;56.20;26.50;;;;;;;4.61;100.00;102620.00;5011539;28;20029;-57
2022/12/01 02:02:44;;;;;;;52.58;26.35;;;;;;;4.63;100.00;102621.63;5009737;28;20053;-58
2022/12/01 02:05:20;;;;;;;55.22;26.60;;;;;;;4.63;100.00;102621.63;5022822;28;20463;-56
2022/12/01 02:07:46;;;;;;;53.70;27.02;;;;;;;4.61;100.00;102623.50;5012575;28;20048;-57
2022/12/01 02:10:13;;;;;;;54.97;26.77;;;;;;;4.60;100.00;102621.81;5012975;28;20428;-59
2022/12/01 02:13:09;;;;;;;58.03;27.23;;;;;;;4.63;100.00;102619.00;5023183;28;20028;-57
2022/12/01 02:16:07;;;;;;;52.63;26.65;;;;;;;4.65;100.00;102617.16;5010195;28;20139;-57
2022/12/01 02:18:54;;;;;;;57.67;27.92;;;;;;;4.64;100.00;102618.06;5018640;28;20060;-57
2022/12/01 02:21:22;;;;;;;59.00;29.10;;;;;;;4.67;100.00;102620.56;5012325;28;20068;-56
2022/12/01 02:24:33;;;;;;;59.33;28.50;;;;;;;4.66;100.00;102618.84;5026719;28;20488;-58
2022/12/01 02:27:07;;;;;;;59.90;28.77;;;;;;;4.58;100.00;102618.38;5009968;28;20041;-57
2022/12/01 02:29:44;;;;;;;57.47;28.73;;;;;;;4.57;100.00;102619.31;5020155;28;20075;-57
2022/12/01 02:32:45;;;;;;;58.10;28.95;;;;;;;4.57;100.00;102620.19;5018291;28;20096;-57
2022/12/01 02:35:33;;;;;;;59.10;29.52;;;;;;;4.55;100.00;102619.38;5011436;28;20068;-59
2022/12/01 02:38:30;;;;;;;58.15;29.38;;;;;;;4.54;100.00;102614.22;5021950;28;20037;-57
2022/12/01 02:41:19;;;;;;;61.67;29.83;;;;;;;4.57;100.00;102624.56;5018056;28;20048;-58
2022/12/01 02:44:08;;;;;;;64.70;30.30;;;;;;;4.52;100.00;102619.56;5019217;28;20064;-57
2022/12/01 02:46:38;;;;;;;63.33;30.75;;;;;;;4.50;100.00;102623.19;5017529;28;20116;-57
2022/12/01 02:49:20;;;;;;;65.30;30.60;;;;;;;4.59;100.00;102622.72;5016933;28;20041;-59
2022/12/01 02:51:47;;;;;;;64.97;32.28;;;;;;;4.47;100.00;102621.56;5020273;28;20037;-56
2022/12/01 02:54:14;;;;;;;63.85;30.08;;;;;;;4.51;100.00;102624.88;5010945;28;20040;-57
2022/12/01 02:56:42;;;;;;;62.55;28.83;;;;;;;4.55;100.00;102615.94;5014685;28;20041;-59
2022/12/01 02:59:10;;;;;;;67.60;31.70;;;;;;;4.50;100.00;102623.19;5019214;28;20091;-57
2022/12/01 03:02:03;;;;;;;67.15;31.08;;;;;;;4.54;100.00;102616.88;5015387;28;20714;-59
2022/12/01 03:04:50;;;;;;;64.30;31.10;;;;;;;4.56;100.00;102628.13;5015244;28;20048;-57
2022/12/01 03:07:35;;;;;;;62.80;29.58;;;;;;;4.52;100.00;102631.84;5021172;28;20104;-57
2022/12/01 03:10:19;;;;;;;61.17;29.83;;;;;;;4.56;100.00;102622.88;5020928;28;20040;-57
2022/12/01 03:13:07;;;;;;;61.75;29.65;;;;;;;4.57;100.00;102620.19;5012505;28;20038;-57
2022/12/01 03:15:57;;;;;;;68.20;30.42;;;;;;;4.58;100.00;102618.38;5012830;28;20018;-56
2022/12/01 03:18:38;;;;;;;59.83;29.60;;;;;;;4.60;100.00;102619.19;5023530;28;20029;-57
2022/12/01 03:21:16;;;;;;;61.92;30.55;;;;;;;4.64;100.00;102615.44;5020155;28;20045;-57
2022/12/01 03:23:46;;;;;;;62.92;30.52;;;;;;;4.58;100.00;102621.88;5014709;28;20025;-58
2022/12/01 03:26:17;;;;;;;62.65;31.10;;;;;;;4.62;100.00;102621.69;5019828;28;20485;-56
2022/12/01 03:28:47;;;;;;;60.60;29.42;;;;;;;4.58;100.00;102621.88;5021565;28;20040;-57
2022/12/01 03:31:18;;;;;;;56.78;29.45;;;;;;;4.61;100.00;102618.25;5013201;28;20033;-57
2022/12/01 03:33:50;;;;;;;56.28;29.10;;;;;;;4.66;100.00;102618.00;5018178;28;20124;-58
2022/12/01 03:36:35;;;;;;;59.35;29.58;;;;;;;4.66;100.00;102621.50;5019932;28;20094;-57
2022/12/01 03:39:05;;;;;;;59.42;30.10;;;;;;;4.68;100.00;102621.38;5025055;28;20081;-56
2022/12/01 03:41:36;;;;;;;58.13;30.17;;;;;;;4.65;100.00;102617.16;5025470;28;20073;-57
2022/12/01 03:44:13;;;;;;;59.28;28.70;;;;;;;4.65;100.00;102619.78;5021116;28;20124;-59
2022/12/01 03:46:49;;;;;;;55.47;29.98;;;;;;;4.65;100.00;102622.44;5018050;28;20033;-60
2022/12/01 03:49:16;;;;;;;59.35;29.85;;;;;;;4.59;100.00;102617.44;5020998;28;20130;-58
2022/12/01 03:51:56;;;;;;;55.55;28.80;;;;;;;4.63;100.00;102613.75;5025773;28;20040;-58
2022/12/01 03:54:32;;;;;;;56.97;29.52;;;;;;;4.60;100.00;102618.31;5021438;28;20029;-58
2022/12/01 03:57:07;;;;;;;57.47;29.73;;;;;;;4.55;100.00;102610.66;5011857;28;20026;-57
2022/12/01 03:59:35;;;;;;;58.10;29.80;;;;;;;4.60;100.00;102621.81;5017431;28;20034;-58
2022/12/01 04:02:00;;;;;;;59.28;29.13;;;;;;;4.60;100.00;102624.44;5009168;28;20037;-56
2022/12/01 04:04:26;;;;;;;59.42;29.98;;;;;;;4.58;100.00;102626.25;5019266;28;20025;-57
2022/12/01 04:06:52;;;;;;;59.47;29.83;;;;;;;4.56;100.00;102623.75;5021540;28;20412;-57
2022/12/01 04:09:17;;;;;;;55.95;28.95;;;;;;;4.60;100.00;102629.69;5023312;28;21006;-59
2022/12/01 04:14:27;;;;;;;52.75;27.73;;;;;;;4.59;100.00;102627.97;5021949;28;20109;-57
2022/12/01 04:16:52;;;;;;;56.75;28.10;;;;;;;4.62;100.00;102616.44;5020620;28;20065;-57
2022/12/01 04:19:17;;;;;;;57.35;29.15;;;;;;;4.63;100.00;102624.25;5024334;28;20033;-57
2022/12/01 04:21:43;;;;;;;52.58;28.73;;;;;;;4.67;100.00;102625.81;5024860;28;20030;-57
2022/12/01 04:24:08;;;;;;;55.78;29.33;;;;;;;4.70;100.00;102625.63;5018357;28;20033;-57
2022/12/01 04:26:36;;;;;;;54.53;29.05;;;;;;;4.67;100.00;102631.06;5022956;28;20026;-57
2022/12/01 04:29:03;;;;;;;54.45;28.55;;;;;;;4.66;100.00;102626.75;5015161;28;20026;-59
2022/12/01 04:31:29;;;;;;;55.85;28.83;;;;;;;4.69;100.00;102623.13;5012415;28;20048;-57
2022/12/01 04:33:56;;;;;;;55.47;28.88;;;;;;;4.70;100.00;102630.06;5017459;28;20038;-57
2022/12/01 04:36:22;;;;;;;55.47;28.45;;;;;;;4.70;100.00;102623.00;5015625;28;20419;-59
2022/12/01 04:38:47;;;;;;;55.00;28.38;;;;;;;4.76;100.00;102628.88;5016867;28;20093;-57
2022/12/01 04:41:14;;;;;;;56.03;29.65;;;;;;;4.71;100.00;102632.63;5021851;28;20432;-57
2022/12/01 04:43:40;;;;;;;55.17;30.33;;;;;;;4.65;100.00;102625.06;5014768;28;20034;-57
2022/12/01 04:46:06;;;;;;;58.13;29.92;;;;;;;4.61;100.00;102623.50;5019415;28;20692;-57
2022/12/01 04:48:32;;;;;;;55.97;29.13;;;;;;;4.61;100.00;102626.13;5009586;28;20037;-58
2022/12/01 04:50:57;;;;;;;54.90;29.33;;;;;;;4.61;100.00;102626.13;5019157;28;20108;-57
2022/12/01 04:53:23;;;;;;;56.75;29.80;;;;;;;4.60;100.00;102624.44;5015992;28;20108;-57
2022/12/01 04:55:48;;;;;;;53.88;28.85;;;;;;;4.61;100.00;102626.13;5009410;28;20033;-58
2022/12/01 04:58:13;;;;;;;54.85;29.20;;;;;;;4.64;100.00;102625.13;5018260;28;20045;-57
2022/12/01 05:00:39;;;;;;;55.13;29.73;;;;;;;4.67;100.00;102625.81;5020897;28;20119;-57
2022/12/01 05:03:05;;;;;;;53.53;29.15;;;;;;;4.66;100.00;102626.75;5012772;28;20080;-57
2022/12/01 05:05:30;;;;;;;54.67;29.73;;;;;;;4.69;100.00;102623.94;5021267;28;20045;-58
2022/12/01 05:07:57;;;;;;;52.13;28.40;;;;;;;4.65;100.00;102622.44;5014220;28;20033;-57
2022/12/01 05:10:23;;;;;;;51.40;29.05;;;;;;;4.63;100.00;102620.81;5011463;28;20048;-57
2022/12/01 05:12:48;;;;;;;54.90;29.38;;;;;;;4.67;100.00;102615.31;5018023;28;20029;-57
2022/12/01 05:15:14;;;;;;;53.92;28.92;;;;;;;4.63;100.00;102618.16;5020410;28;20040;-59
2022/12/01 05:17:40;;;;;;;52.17;28.48;;;;;;;4.64;100.00;102615.44;5005406;28;20497;-57
2022/12/01 05:22:51;;;;;;;59.40;29.13;;;;;;;4.60;100.00;102629.69;5021113;28;20056;-58
2022/12/01 05:25:17;;;;;;;57.13;29.77;;;;;;;4.60;100.00;102627.06;5023932;28;20057;-57
2022/12/01 05:27:42;;;;;;;50.75;27.92;;;;;;;4.60;100.00;102624.44;5023170;28;20880;-58
2022/12/01 05:30:08;;;;;;;53.00;28.13;;;;;;;4.63;100.00;102626.88;5023748;28;20056;-60
2022/12/01 05:32:33;;;;;;;52.50;27.48;;;;;;;4.62;100.00;102627.81;5020420;28;20033;-58
2022/12/01 05:34:58;;;;;;;53.13;28.45;;;;;;;4.64;100.00;102628.59;5011531;28;20095;-57
2022/12/01 05:37:24;;;;;;;54.42;28.77;;;;;;;4.67;100.00;102627.56;5021374;28;20038;-57
2022/12/01 05:39:49;;;;;;;53.63;29.13;;;;;;;4.65;100.00;102638.19;5023116;28;20061;-56
2022/12/01 05:42:14;;;;;;;54.38;28.95;;;;;;;4.64;100.00;102636.47;5008013;28;20034;-59
2022/12/01 05:44:39;;;;;;;54.75;29.38;;;;;;;4.61;100.00;102628.75;5020186;28;20029;-57
2022/12/01 05:47:05;;;;;;;53.17;28.20;;;;;;;4.63;100.00;102623.44;5018574;28;20522;-57
2022/12/01 05:49:30;;;;;;;54.00;28.95;;;;;;;4.61;100.00;102630.53;5013407;28;20037;-57
2022/12/01 05:51:55;;;;;;;55.35;29.45;;;;;;;4.64;100.00;102633.84;5022922;28;20037;-59
2022/12/01 05:54:21;;;;;;;51.88;29.13;;;;;;;4.60;100.00;102640.19;5017240;28;20044;-57
2022/12/01 05:56:46;;;;;;;52.75;28.80;;;;;;;4.61;100.00;102635.78;5017838;28;20063;-56
2022/12/01 05:59:11;;;;;;;57.25;28.80;;;;;;;4.57;100.00;102635.09;5018650;28;20385;-60
2022/12/01 06:01:37;;;;;;;55.58;27.27;;;;;;;4.56;100.00;102636.00;5020310;28;20112;-56
2022/12/01 06:04:02;;;;;;;54.78;28.98;;;;;;;4.54;100.00;102641.34;5020897;28;20033;-57
2022/12/01 06:06:27;;;;;;;55.88;28.25;;;;;;;4.58;100.00;102642.03;5026015;28;20102;-59
2022/12/01 06:08:53;;;;;;;56.42;29.00;;;;;;;4.58;100.00;102642.03;5014179;28;20852;-58
2022/12/01 06:11:18;;;;;;;60.47;30.35;;;;;;;4.56;100.00;102647.38;5015783;28;20072;-57
2022/12/01 06:13:43;;;;;;;56.35;29.23;;;;;;;4.58;100.00;102636.78;5013995;28;20030;-59
2022/12/01 06:16:08;;;;;;;55.25;29.05;;;;;;;4.60;100.00;102640.19;5013937;28;20036;-57
2022/12/01 06:18:36;;;;;;;54.53;28.92;;;;;;;4.61;100.00;102647.16;5016911;28;20037;-57
2022/12/01 06:21:02;;;;;;;57.80;29.70;;;;;;;4.56;100.00;102639.50;5014353;28;20037;-57
2022/12/01 06:23:28;;;;;;;55.95;28.25;;;;;;;4.61;100.00;102641.03;5016012;28;20040;-58
2022/12/01 06:25:53;;;;;;;56.15;29.70;;;;;;;4.64;100.00;102633.84;5017762;28;20033;-56
2022/12/01 06:28:18;;;;;;;56.15;29.02;;;;;;;4.61;100.00;102641.91;5027752;28;20113;-58
2022/12/01 06:30:44;;;;;;;56.38;30.25;;;;;;;4.62;100.00;102642.72;5018383;28;20095;-58
2022/12/01 06:33:10;;;;;;;55.90;29.83;;;;;;;4.62;100.00;102643.59;5013206;28;20113;-56
2022/12/01 06:35:36;;;;;;;59.70;29.92;;;;;;;4.57;100.00;102643.81;5009954;28;20140;-58
2022/12/01 06:38:01;;;;;;;56.53;29.90;;;;;;;4.60;100.00;102645.44;5010797;28;20655;-59
2022/12/01 06:40:28;;;;;;;59.58;29.20;;;;;;;4.60;100.00;102641.97;5013386;28;20053;-57
2022/12/01 06:42:53;;;;;;;59.53;28.58;;;;;;;4.60;100.00;102644.59;5017209;28;20056;-59
2022/12/01 06:45:18;;;;;;;56.15;28.55;;;;;;;4.65;100.00;102648.69;5020371;28;20457;-58
2022/12/01 06:47:46;;;;;;;59.70;29.10;;;;;;;4.59;100.00;102648.97;5015412;28;20033;-57
2022/12/01 06:50:12;;;;;;;55.95;28.77;;;;;;;4.60;100.00;102649.84;5014948;28;20034;-58
2022/12/01 06:52:37;;;;;;;55.15;29.02;;;;;;;4.68;100.00;102643.28;5016833;28;20040;-60
2022/12/01 06:55:04;;;;;;;57.25;28.52;;;;;;;4.63;100.00;102653.16;5013343;28;20033;-58
2022/12/01 06:57:30;;;;;;;60.45;35.38;;;;;;;4.64;100.00;102652.22;5017664;28;20053;-57
2022/12/01 06:59:55;;;;;;;58.63;30.25;;;;;;;4.64;100.00;102661.91;5018608;28;20041;-60
2022/12/01 07:02:21;;;;;;;61.58;29.58;;;;;;;4.66;100.00;102663.53;5024245;28;20036;-57
2022/12/01 07:04:46;;;;;;;54.65;28.35;;;;;;;4.68;100.00;102669.56;5020916;28;20033;-58
2022/12/01 07:07:12;;;;;;;55.03;28.25;;;;;;;4.69;100.00;102663.38;5015482;28;20113;-57
2022/12/01 07:09:38;;;;;;;55.50;28.25;;;;;;;4.69;100.00;102673.88;5011773;28;20512;-58
2022/12/01 07:12:04;;;;;;;55.13;28.15;;;;;;;4.71;100.00;102674.66;5023380;28;20608;-57
2022/12/01 07:14:30;;;;;;;58.97;28.63;;;;;;;4.70;100.00;102672.94;5015678;28;20034;-60
2022/12/01 07:16:56;;;;;;;57.42;28.35;;;;;;;4.69;100.00;102673.88;5025818;28;20116;-56
2022/12/01 07:19:22;;;;;;;56.90;28.83;;;;;;;4.70;100.00;102670.31;5016729;28;20088;-60
2022/12/01 07:21:48;;;;;;;58.03;28.38;;;;;;;4.69;100.00;102676.50;5018043;28;20080;-58
2022/12/01 07:24:13;;;;;;;55.30;29.23;;;;;;;4.69;100.00;102676.50;5015351;28;20048;-57
2022/12/01 07:26:40;;;;;;;58.50;28.95;;;;;;;4.74;100.00;102683.31;5019951;28;20030;-57
2022/12/01 07:29:05;;;;;;;56.72;28.15;;;;;;;4.79;100.00;102689.19;5018711;28;20037;-59
2022/12/01 07:31:31;;;;;;;55.28;27.77;;;;;;;4.74;100.00;102686.78;5017832;28;20040;-59
2022/12/01 07:33:57;;;;;;;54.58;27.15;;;;;;;4.74;100.00;102683.31;5024842;28;20033;-57
2022/12/01 07:36:22;;;;;;;58.53;28.65;;;;;;;4.76;100.00;102691.97;5024215;28;20458;-57
2022/12/01 07:38:47;;;;;;;55.30;28.17;;;;;;;4.74;100.00;102684.16;5024101;28;20037;-57
2022/12/01 07:41:17;;;;;;;54.53;27.95;;;;;;;4.75;100.00;102690.28;5024758;28;20640;-57
2022/12/01 07:43:43;;;;;;;57.17;27.83;;;;;;;4.77;100.00;102685.78;5022008;28;20087;-57
2022/12/01 07:46:16;;;;;;;55.28;28.85;;;;;;;4.78;100.00;102684.88;5018438;28;20029;-58
2022/12/01 07:48:41;;;;;;;54.20;28.05;;;;;;;4.82;100.00;102694.28;5022139;28;20075;-57
2022/12/01 07:51:08;;;;;;;55.28;27.48;;;;;;;4.78;100.00;102690.13;5023299;28;20053;-58
2022/12/01 07:53:34;;;;;;;50.78;27.60;;;;;;;4.79;100.00;102697.09;5025509;28;20025;-58
2022/12/01 07:56:00;;;;;;;54.08;27.73;;;;;;;4.80;100.00;102698.78;5022427;28;20382;-57
2022/12/01 07:58:26;;;;;;;53.35;27.30;;;;;;;4.81;100.00;102695.22;5018861;28;20108;-57
2022/12/01 08:00:52;;;;;;;51.65;27.83;;;;;;;4.80;100.00;102693.53;5023827;28;20021;-59
2022/12/01 08:03:18;;;;;;;53.80;28.02;;;;;;;4.80;100.00;102704.03;5010551;28;20126;-58
2022/12/01 08:05:43;;;;;;;54.08;27.70;;;;;;;4.76;100.00;102694.59;5015783;28;20040;-58
2022/12/01 08:08:08;;;;;;;54.88;28.08;;;;;;;4.78;100.00;102712.00;5022213;28;20026;-57
2022/12/01 08:10:35;;;;;;;52.88;27.50;;;;;;;4.76;100.00;102713.00;5019937;28;20033;-57
2022/12/01 08:13:00;;;;;;;54.08;27.73;;;;;;;4.81;100.00;102716.25;5024173;28;20404;-59
2022/12/01 08:15:25;;;;;;;50.55;27.35;;;;;;;4.79;100.00;102713.69;5023851;28;20041;-58
2022/12/01 08:17:51;;;;;;;52.15;28.63;;;;;;;4.81;100.00;102721.50;5014974;28;20041;-57
2022/12/01 08:20:16;;;;;;;54.08;28.65;;;;;;;4.79;100.00;102720.75;5024611;28;20088;-60
2022/12/01 08:22:41;;;;;;;52.28;28.73;;;;;;;4.79;100.00;102720.75;5021349;28;20756;-57
2022/12/01 08:25:07;;;;;;;50.88;28.23;;;;;;;4.80;100.00;102717.19;5012967;28;20025;-57
2022/12/01 08:27:34;;;;;;;50.45;27.60;;;;;;;4.80;100.00;102725.06;5022336;28;20041;-57
2022/12/01 08:29:59;;;;;;;56.13;29.15;;;;;;;4.81;100.00;102711.00;5025826;28;20115;-57
2022/12/01 08:32:24;;;;;;;53.20;28.42;;;;;;;4.85;100.00;102723.06;5024499;28;20065;-57
2022/12/01 08:34:50;;;;;;;54.30;29.10;;;;;;;4.83;100.00;102723.13;5017393;28;20033;-58
2022/12/01 08:37:15;;;;;;;52.38;27.75;;;;;;;4.87;100.00;102723.00;5022547;28;20394;-58
2022/12/01 08:39:40;;;;;;;52.15;28.40;;;;;;;4.88;100.00;102722.06;5014681;28;20045;-58
2022/12/01 08:42:05;;;;;;;53.00;29.50;;;;;;;4.87;100.00;102726.44;5022702;28;20615;-56
2022/12/01 08:44:31;;;;;;;54.47;29.98;;;;;;;4.86;100.00;102722.13;5023894;28;20048;-60
2022/12/01 08:46:56;;;;;;;54.75;29.33;;;;;;;4.87;100.00;102721.19;5023229;28;20033;-57
2022/12/01 08:49:21;;;;;;;54.90;29.40;;;;;;;4.89;100.00;102729.84;5021736;28;20038;-57
2022/12/01 08:51:47;;;;;;;53.80;29.15;;;;;;;4.89;100.00;102718.50;5022073;28;20025;-59
2022/12/01 08:54:12;;;;;;;56.78;30.48;;;;;;;4.90;100.00;102730.72;5009313;28;20060;-58
2022/12/01 08:56:41;;;;;;;54.83;30.10;;;;;;;4.84;100.00;102724.00;5019148;28;20161;-57
2022/12/01 08:59:06;;;;;;;52.33;29.88;;;;;;;4.94;100.00;102730.47;5020140;28;20033;-59
2022/12/01 09:01:32;;;;;;;54.35;29.80;;;;;;;4.95;100.00;102729.53;5012588;28;20037;-59
2022/12/01 09:04:07;;;;;;;53.72;29.67;;;;;;;4.92;100.00;102729.72;5022333;28;20033;-57
2022/12/01 09:06:41;;;;;;;48.42;28.08;;;;;;;4.95;100.00;102726.91;5010835;28;20026;-57
2022/12/01 09:09:08;;;;;;;51.28;28.58;;;;;;;4.95;100.00;102723.44;5012391;28;20045;-59
2022/12/01 09:11:33;;;;;;;52.33;29.02;;;;;;;4.98;100.00;102729.41;5021120;28;20469;-57
2022/12/01 09:13:59;;;;;;;64.75;29.95;;;;;;;5.02;100.00;102729.25;5014597;28;20042;-59
2022/12/01 09:16:24;;;;;;;54.28;28.85;;;;;;;5.01;100.00;102727.53;5022084;28;20029;-59
2022/12/01 09:18:50;;;;;;;50.97;28.67;;;;;;;5.02;100.00;102729.25;5015846;28;20540;-57
2022/12/01 09:21:21;;;;;;;54.60;29.33;;;;;;;5.04;100.00;102740.53;5020725;28;20033;-57
2022/12/01 09:23:47;;;;;;;51.63;29.25;;;;;;;4.95;100.00;102726.91;5015256;28;20040;-58
2022/12/01 09:26:17;;;;;;;52.63;29.58;;;;;;;4.97;100.00;102738.22;5011930;28;20520;-57
2022/12/01 09:28:43;;;;;;;49.53;28.70;;;;;;;4.99;100.00;102730.25;5021861;28;20382;-58
2022/12/01 09:31:10;;;;;;;49.13;27.70;;;;;;;5.01;100.00;102730.16;5019792;28;20029;-58
2022/12/01 09:33:37;;;;;;;50.13;29.00;;;;;;;5.04;100.00;102744.00;5014350;28;20029;-59
2022/12/01 09:36:04;;;;;;;52.10;29.73;;;;;;;5.01;100.00;102740.69;5022568;28;20040;-57
2022/12/01 09:38:31;;;;;;;53.88;30.08;;;;;;;5.01;100.00;102746.78;5022896;28;20135;-57
2022/12/01 09:41:01;;;;;;;52.50;28.70;;;;;;;5.05;100.00;102747.50;5015964;28;20052;-59
2022/12/01 09:43:37;;;;;;;51.03;28.08;;;;;;;5.07;100.00;102748.25;5017250;28;20048;-57
2022/12/01 09:46:08;;;;;;;52.05;29.05;;;;;;;4.99;100.00;102751.28;5023299;28;20037;-57
2022/12/01 09:48:42;;;;;;;54.22;29.90;;;;;;;5.02;100.00;102745.03;5013462;28;20037;-59
2022/12/01 09:51:14;;;;;;;53.78;29.75;;;;;;;5.05;100.00;102744.84;5022775;28;20880;-58
2022/12/01 09:53:40;;;;;;;51.67;29.33;;;;;;;5.03;100.00;102742.31;5012269;28;20034;-59
2022/12/01 09:56:17;;;;;;;51.22;29.73;;;;;;;5.06;100.00;102736.03;5023183;28;20029;-57
2022/12/01 09:58:43;;;;;;;51.95;30.20;;;;;;;5.10;100.00;102732.34;5021540;28;20033;-57
2022/12/01 10:01:16;;;;;;;55.03;30.00;;;;;;;5.10;100.00;102732.34;5016694;28;20092;-58
2022/12/01 10:03:54;;;;;;;56.83;30.52;;;;;;;5.17;100.00;102741.59;5012887;28;20030;-58
2022/12/01 10:06:38;;;;;;;56.70;30.05;;;;;;;5.16;100.00;102732.00;5006606;28;20108;-58
2022/12/01 10:09:16;;;;;;;51.88;29.90;;;;;;;5.23;98.80;102738.66;5018170;28;20038;-58
2022/12/01 10:11:44;;;;;;;54.45;30.15;;;;;;;5.12;98.55;102725.19;5014627;28;20588;-57
2022/12/01 10:14:15;;;;;;;54.90;30.35;;;;;;;5.20;99.46;102737.97;5018336;28;20029;-59
2022/12/01 10:16:54;;;;;;;55.20;30.30;;;;;;;5.14;100.00;102718.09;5024655;28;20061;-58
2022/12/01 10:19:41;;;;;;;53.92;30.48;;;;;;;5.18;99.13;102724.88;5023930;28;20030;-59
2022/12/01 10:22:44;;;;;;;54.28;30.90;;;;;;;5.24;99.34;102729.00;5011067;28;20559;-58
2022/12/01 10:25:39;;;;;;;55.10;30.10;;;;;;;5.25;100.00;102734.16;5018176;28;20029;-59
2022/12/01 10:28:24;;;;;;;58.50;30.70;;;;;;;5.24;99.14;102729.00;5012087;28;20977;-58
2022/12/01 10:30:51;;;;;;;53.63;29.15;;;;;;;5.31;99.48;102713.72;5022782;28;20051;-57
2022/12/01 10:33:32;;;;;;;55.47;30.92;;;;;;;5.36;99.50;102716.97;5020101;28;20153;-58
2022/12/01 10:35:58;;;;;;;52.65;29.60;;;;;;;5.46;98.21;102714.69;5011845;28;20038;-58
2022/12/01 10:38:31;;;;;;;59.63;30.73;;;;;;;5.41;99.03;102699.16;5019015;28;20033;-60
2022/12/01 10:40:59;;;;;;;;;;;;;;;5.58;99.61;102707.94;5017604;28;20050;-58
2022/12/01 10:43:33;;;;;;;54.75;30.70;;;;;;;5.43;97.37;102715.72;5031163;28;19936;-58
2022/12/01 10:46:03;;;;;;;55.00;30.60;;;;;;;5.44;97.45;102703.41;5019302;28;20032;-59
2022/12/01 10:48:28;;;;;;;54.88;30.38;;;;;;;5.45;96.97;102711.22;5040139;28;20037;-60
2022/12/01 10:50:56;;;;;;;51.92;31.00;;;;;;;5.43;97.50;102701.72;5023155;28;20057;-57
2022/12/01 10:53:26;;;;;;;52.42;30.60;;;;;;;5.42;97.12;102700.84;5021944;28;20036;-57
2022/12/01 10:56:14;;;;;;;52.45;30.25;;;;;;;5.43;97.91;102699.91;5014863;28;20037;-61
2022/12/01 10:58:50;;;;;;;56.17;30.70;;;;;;;5.35;97.71;102704.75;5016661;28;20726;-58
2022/12/01 11:01:24;;;;;;;55.30;31.45;;;;;;;5.39;98.25;102695.78;5013478;28;20041;-58
2022/12/01 11:03:52;;;;;;;58.03;31.75;;;;;;;5.42;98.88;102703.47;5018063;28;20120;-57
2022/12/01 11:06:22;;;;;;;48.83;28.70;;;;;;;5.49;97.13;102693.50;5006387;28;20045;-57
2022/12/01 11:09:00;;;;;;;54.40;30.63;;;;;;;5.42;97.77;102700.03;5021182;28;20867;-57
2022/12/01 11:11:30;;;;;;;52.45;29.85;;;;;;;5.39;98.50;102693.13;5021229;28;20045;-58
2022/12/01 11:13:57;;;;;;;54.83;30.58;;;;;;;5.39;98.60;102698.41;5019747;28;20077;-58
2022/12/01 11:16:41;;;;;;;53.17;30.23;;;;;;;5.41;98.24;102699.16;5018511;28;20034;-58
2022/12/01 11:19:17;;;;;;;54.72;29.75;;;;;;;5.51;98.89;102695.13;5017222;28;20163;-57
2022/12/01 11:21:49;;;;;;;56.63;30.90;;;;;;;5.50;98.25;102692.56;5017996;28;20033;-57
2022/12/01 11:24:41;;;;;;;53.65;29.90;;;;;;;5.54;98.50;102687.97;5009348;28;20030;-59